createdAt,value
2018-05-23T00:07:19.977Z,7.77
2018-05-23T00:09:46.577Z,8.20
2018-05-23T00:12:12.987Z,7.00
2018-05-23T00:14:52.841Z,7.47
2018-05-23T00:17:20.117Z,6.80
2018-05-23T00:19:46.468Z,6.73
2018-05-23T00:22:12.857Z,7.53
2018-05-23T00:24:45.252Z,7.03
2018-05-23T00:27:13.328Z,7.33
2018-05-23T00:29:43.830Z,6.47
2018-05-23T00:32:13.354Z,7.20
2018-05-23T00:34:43.739Z,7.60
2018-05-23T00:37:14.311Z,6.83
2018-05-23T00:39:43.871Z,7.30
2018-05-23T00:42:14.364Z,7.60
2018-05-23T00:44:43.764Z,7.33
2018-05-23T00:47:13.511Z,7.23
2018-05-23T00:49:43.886Z,6.70
2018-05-23T00:52:13.373Z,8.03
2018-05-23T00:57:43.540Z,7.40
2018-05-23T01:00:13.597Z,8.07
2018-05-23T01:02:42.995Z,7.83
2018-05-23T01:05:12.968Z,7.27
2018-05-23T01:07:43.816Z,8.00
2018-05-23T01:13:13.558Z,7.60
2018-05-23T01:15:43.093Z,7.10
2018-05-23T01:18:12.717Z,7.10
2018-05-23T01:20:43.080Z,7.70
2018-05-23T01:23:13.786Z,7.07
2018-05-23T01:25:44.280Z,7.70
2018-05-23T01:28:14.054Z,7.33
2018-05-23T01:30:43.666Z,6.90
2018-05-23T01:33:13.885Z,7.90
2018-05-23T01:35:43.766Z,7.03
2018-05-23T01:38:17.403Z,7.27
2018-05-23T01:40:44.004Z,7.50
2018-05-23T01:43:14.281Z,7.50
2018-05-23T01:45:44.144Z,6.47
2018-05-23T01:48:13.966Z,6.97
2018-05-23T01:50:43.667Z,7.27
2018-05-23T01:53:14.569Z,6.83
2018-05-23T01:55:44.617Z,7.20
2018-05-23T01:58:13.457Z,7.00
2018-05-23T02:00:43.591Z,7.00
2018-05-23T02:03:16.823Z,6.60
2018-05-23T02:05:43.487Z,6.60
2018-05-23T02:11:13.707Z,7.10
2018-05-23T02:13:44.844Z,6.70
2018-05-23T02:16:13.648Z,7.30
2018-05-23T02:18:43.717Z,7.03
2018-05-23T02:24:14.096Z,7.23
2018-05-23T02:26:46.885Z,7.03
2018-05-23T02:29:13.823Z,7.57
2018-05-23T02:31:44.040Z,7.00
2018-05-23T02:34:14.329Z,7.17
2018-05-23T02:36:44.739Z,7.10
2018-05-23T02:39:14.622Z,6.83
2018-05-23T02:41:44.545Z,6.70
2018-05-23T02:44:12.813Z,7.23
2018-05-23T02:46:49.168Z,7.50
2018-05-23T02:49:16.370Z,9.27
2018-05-23T02:51:42.799Z,7.40
2018-05-23T02:54:13.155Z,7.17
2018-05-23T02:56:45.533Z,8.40
2018-05-23T02:59:13.116Z,8.53
2018-05-23T03:01:43.545Z,8.00
2018-05-23T03:04:18.153Z,7.03
2018-05-23T03:06:44.532Z,7.53
2018-05-23T03:09:14.067Z,6.77
2018-05-23T03:11:42.810Z,7.80
2018-05-23T03:14:15.369Z,8.07
2018-05-23T03:16:42.869Z,7.47
2018-05-23T03:19:15.536Z,7.00
2018-05-23T03:21:43.075Z,7.30
2018-05-23T03:24:15.485Z,8.23
2018-05-23T03:26:43.361Z,8.20
2018-05-23T03:29:13.030Z,8.90
2018-05-23T03:31:43.503Z,8.17
2018-05-23T03:34:13.891Z,8.40
2018-05-23T03:36:44.152Z,7.10
2018-05-23T03:39:13.432Z,7.20
2018-05-23T03:41:44.233Z,7.87
2018-05-23T03:44:13.983Z,8.20
2018-05-23T03:46:44.300Z,9.93
2018-05-23T03:49:14.718Z,9.13
2018-05-23T03:51:43.067Z,8.83
2018-05-23T03:54:13.443Z,8.17
2018-05-23T03:56:44.057Z,8.67
2018-05-23T03:59:13.724Z,8.50
2018-05-23T04:04:52.476Z,9.90
2018-05-23T04:10:12.908Z,8.53
2018-05-23T04:12:42.559Z,9.27
2018-05-23T04:15:13.217Z,9.70
2018-05-23T04:17:43.948Z,9.80
2018-05-23T04:20:15.107Z,10.17
2018-05-23T04:22:43.375Z,11.20
2018-05-23T04:25:13.811Z,9.73
2018-05-23T04:27:43.187Z,10.17
2018-05-23T04:30:18.519Z,9.50
2018-05-23T04:32:44.892Z,9.90
2018-05-23T04:35:14.457Z,10.50
2018-05-23T04:37:42.731Z,11.03
2018-05-23T04:40:15.349Z,9.57
2018-05-23T04:42:43.547Z,11.43
2018-05-23T04:45:13.904Z,11.07
2018-05-23T04:47:42.555Z,10.10
2018-05-23T04:50:13.916Z,11.03
2018-05-23T04:52:43.414Z,10.47
2018-05-23T04:55:13.357Z,10.17
2018-05-23T04:57:42.861Z,10.90
2018-05-23T05:00:13.203Z,11.00
2018-05-23T05:02:42.670Z,9.33
2018-05-23T05:05:13.199Z,11.40
2018-05-23T05:07:43.185Z,11.43
2018-05-23T05:10:12.897Z,10.77
2018-05-23T05:12:45.365Z,11.40
2018-05-23T05:15:13.157Z,12.20
2018-05-23T05:17:39.500Z,11.23
2018-05-23T05:20:05.840Z,11.10
2018-05-23T05:22:32.412Z,11.57
2018-05-23T05:24:58.957Z,11.00
2018-05-23T05:27:26.459Z,11.00
2018-05-23T05:29:52.970Z,11.60
2018-05-23T05:32:20.119Z,11.83
2018-05-23T05:34:46.617Z,12.80
2018-05-23T05:37:13.085Z,11.83
2018-05-23T05:39:43.007Z,11.87
2018-05-23T05:42:12.000Z,12.60
2018-05-23T05:44:39.334Z,12.57
2018-05-23T05:47:07.644Z,11.40
2018-05-23T05:49:36.981Z,13.40
2018-05-23T05:52:04.675Z,12.23
2018-05-23T05:54:34.065Z,12.33
2018-05-23T05:57:03.920Z,13.10
2018-05-23T05:59:30.448Z,11.67
2018-05-23T06:01:56.795Z,11.37
2018-05-23T06:04:23.196Z,10.83
2018-05-23T06:06:49.740Z,11.40
2018-05-23T06:09:16.139Z,11.97
2018-05-23T06:11:42.847Z,11.23
2018-05-23T06:14:09.083Z,12.77
2018-05-23T06:16:35.342Z,10.87
2018-05-23T06:19:03.692Z,12.10
2018-05-23T06:21:30.313Z,12.30
2018-05-23T06:23:58.303Z,10.93
2018-05-23T06:26:25.011Z,11.27
2018-05-23T06:29:01.924Z,11.73
2018-05-23T06:31:28.258Z,11.40
2018-05-23T06:33:54.524Z,14.60
2018-05-23T06:36:20.748Z,21.00
2018-05-23T06:38:47.141Z,10.90
2018-05-23T06:41:14.228Z,11.77
2018-05-23T06:43:40.910Z,11.00
2018-05-23T06:46:09.008Z,11.30
2018-05-23T06:48:35.341Z,11.23
2018-05-23T06:51:02.862Z,11.30
2018-05-23T06:53:36.439Z,11.70
2018-05-23T06:56:08.078Z,11.70
2018-05-23T06:58:36.321Z,10.53
2018-05-23T07:01:02.648Z,11.20
2018-05-23T07:03:28.884Z,11.90
2018-05-23T07:06:01.898Z,10.60
2018-05-23T07:08:37.680Z,12.13
2018-05-23T07:11:11.452Z,12.37
2018-05-23T07:13:43.595Z,11.10
2018-05-23T07:16:13.768Z,12.37
2018-05-23T07:18:44.141Z,11.87
2018-05-23T07:21:13.540Z,11.87
2018-05-23T07:23:43.910Z,12.20
2018-05-23T07:26:14.375Z,12.10
2018-05-23T07:28:40.797Z,12.40
2018-05-23T07:31:13.091Z,11.30
2018-05-23T07:33:45.506Z,12.50
2018-05-23T07:36:13.179Z,11.17
2018-05-23T07:38:47.617Z,11.33
2018-05-23T07:41:13.980Z,11.80
2018-05-23T07:43:40.370Z,11.47
2018-05-23T07:46:13.161Z,11.10
2018-05-23T07:48:42.979Z,12.70
2018-05-23T07:51:15.341Z,13.37
2018-05-23T07:53:43.249Z,10.97
2018-05-23T07:56:19.028Z,11.93
2018-05-23T07:58:48.365Z,13.43
2018-05-23T08:01:28.337Z,11.70
2018-05-23T08:03:56.019Z,10.70
2018-05-23T08:09:12.918Z,10.50
2018-05-23T08:11:41.158Z,11.63
2018-05-23T08:14:11.856Z,10.27
2018-05-23T08:16:41.685Z,9.07
2018-05-23T08:19:28.109Z,10.27
2018-05-23T08:21:57.516Z,10.50
2018-05-23T08:24:27.486Z,10.27
2018-05-23T08:27:06.614Z,9.93
2018-05-23T08:29:36.269Z,11.30
2018-05-23T08:32:06.565Z,10.50
2018-05-23T08:34:36.803Z,10.63
2018-05-23T08:37:14.077Z,9.27
2018-05-23T08:39:47.277Z,9.50
2018-05-23T08:42:14.233Z,9.17
2018-05-23T08:44:47.582Z,9.00
2018-05-23T08:47:14.300Z,9.07
2018-05-23T08:49:44.901Z,9.00
2018-05-23T08:52:14.070Z,9.70
2018-05-23T08:54:46.357Z,9.70
2018-05-23T08:57:15.818Z,9.97
2018-05-23T08:59:44.247Z,10.03
2018-05-23T09:02:16.538Z,8.80
2018-05-23T09:04:44.159Z,7.93
2018-05-23T09:07:14.608Z,7.30
2018-05-23T09:09:44.183Z,7.80
2018-05-23T09:12:26.339Z,7.27
2018-05-23T09:14:54.064Z,8.27
2018-05-23T09:17:21.187Z,9.10
2018-05-23T09:19:48.356Z,7.53
2018-05-23T09:22:19.210Z,7.70
2018-05-23T09:24:52.038Z,6.37
2018-05-23T09:27:26.634Z,6.90
2018-05-23T09:30:26.058Z,7.70
2018-05-23T09:32:57.014Z,7.40
2018-05-23T09:35:26.768Z,7.13
2018-05-23T09:37:57.006Z,7.03
2018-05-23T09:40:27.039Z,6.80
2018-05-23T09:42:58.127Z,7.67
2018-05-23T09:45:26.462Z,9.90
2018-05-23T09:47:56.313Z,7.10
2018-05-23T09:50:28.934Z,7.03
2018-05-23T09:52:56.671Z,7.73
2018-05-23T09:55:26.726Z,7.00
2018-05-23T09:57:56.869Z,7.03
2018-05-23T10:00:27.255Z,7.00
2018-05-23T10:02:55.338Z,6.73
2018-05-23T10:05:27.976Z,6.50
2018-05-23T10:07:56.060Z,7.90
2018-05-23T10:10:28.930Z,7.07
2018-05-23T10:12:58.878Z,6.10
2018-05-23T10:15:28.532Z,7.00
2018-05-23T10:17:58.993Z,6.53
2018-05-23T10:20:28.418Z,6.90
2018-05-23T10:22:58.656Z,6.20
2018-05-23T10:25:29.051Z,8.00
2018-05-23T10:27:58.510Z,7.73
2018-05-23T10:30:25.229Z,7.67
2018-05-23T10:32:58.568Z,6.90
2018-05-23T10:35:28.244Z,7.23
2018-05-23T10:37:57.918Z,7.73
2018-05-23T10:40:24.217Z,7.60
2018-05-23T10:42:50.574Z,7.67
2018-05-23T10:45:28.542Z,8.30
2018-05-23T10:47:55.884Z,8.70
2018-05-23T10:50:22.330Z,7.47
2018-05-23T10:52:50.139Z,7.17
2018-05-23T10:55:17.296Z,9.07
2018-05-23T10:57:57.568Z,9.20
2018-05-23T11:00:26.450Z,8.73
2018-05-23T11:02:56.502Z,9.97
2018-05-23T11:05:22.809Z,7.67
2018-05-23T11:07:59.272Z,8.43
2018-05-23T11:10:27.640Z,7.80
2018-05-23T11:12:57.350Z,9.03
2018-05-23T11:17:58.293Z,8.47
2018-05-23T11:20:31.188Z,7.23
2018-05-23T11:22:58.489Z,7.77
2018-05-23T11:25:28.739Z,6.83
2018-05-23T11:27:58.931Z,7.67
2018-05-23T11:30:29.055Z,7.80
2018-05-23T11:32:58.521Z,7.10
2018-05-23T11:35:30.790Z,7.40
2018-05-23T11:38:07.756Z,8.60
2018-05-23T11:40:36.195Z,8.17
2018-05-23T11:43:05.868Z,6.43
2018-05-23T11:45:39.319Z,8.03
2018-05-23T11:48:05.962Z,8.10
2018-05-23T11:53:37.740Z,7.53
2018-05-23T11:56:06.434Z,7.47
2018-05-23T11:58:49.754Z,7.33
2018-05-23T12:01:19.769Z,6.60
2018-05-23T12:03:50.081Z,8.30
2018-05-23T12:06:20.306Z,7.00
2018-05-23T12:08:50.394Z,7.37
2018-05-23T12:11:20.792Z,7.23
2018-05-23T12:13:50.279Z,8.97
2018-05-23T12:16:20.354Z,7.30
2018-05-23T12:18:49.890Z,7.13
2018-05-23T12:24:20.079Z,7.20
2018-05-23T12:26:49.488Z,7.43
2018-05-23T12:29:16.225Z,6.23
2018-05-23T12:31:48.827Z,6.83
2018-05-23T12:34:19.367Z,7.10
2018-05-23T12:36:49.682Z,5.83
2018-05-23T12:39:19.341Z,6.80
2018-05-23T12:41:49.547Z,6.83
2018-05-23T12:44:20.209Z,5.67
2018-05-23T12:46:48.572Z,6.10
2018-05-23T12:52:00.553Z,6.20
2018-05-23T12:54:33.054Z,6.40
2018-05-23T12:57:00.516Z,6.00
2018-05-23T12:59:31.102Z,5.70
2018-05-23T13:02:00.713Z,5.97
2018-05-23T13:04:31.825Z,6.20
2018-05-23T13:07:01.585Z,5.73
2018-05-23T13:09:30.193Z,5.67
2018-05-23T13:12:02.678Z,5.60
2018-05-23T13:14:31.304Z,5.50
2018-05-23T13:17:01.588Z,5.90
2018-05-23T13:19:30.872Z,5.77
2018-05-23T13:22:00.967Z,6.37
2018-05-23T13:24:29.846Z,5.27
2018-05-23T13:27:00.161Z,6.00
2018-05-23T13:29:32.611Z,5.60
2018-05-23T13:32:00.591Z,5.93
2018-05-23T13:34:33.807Z,6.37
2018-05-23T13:37:05.207Z,6.30
2018-05-23T13:39:31.595Z,5.73
2018-05-23T13:42:01.721Z,6.97
2018-05-23T13:44:34.913Z,6.47
2018-05-23T13:47:02.331Z,6.10
2018-05-23T13:49:31.778Z,7.30
2018-05-23T13:52:04.297Z,6.20
2018-05-23T13:54:37.679Z,6.90
2018-05-23T13:57:13.230Z,6.07
2018-05-23T13:59:56.616Z,6.83
2018-05-23T14:02:26.178Z,6.23
2018-05-23T14:04:55.651Z,6.27
2018-05-23T14:07:22.635Z,6.70
2018-05-23T14:09:59.338Z,6.30
2018-05-23T14:12:26.577Z,7.00
2018-05-23T14:14:56.481Z,6.60
2018-05-23T14:17:27.033Z,6.80
2018-05-23T14:19:56.653Z,6.33
2018-05-23T14:22:28.935Z,6.40
2018-05-23T14:24:56.797Z,6.13
2018-05-23T14:27:29.309Z,6.33
2018-05-23T14:29:57.589Z,5.60
2018-05-23T14:32:27.532Z,5.37
2018-05-23T14:34:57.526Z,5.60
2018-05-23T14:37:26.805Z,6.00
2018-05-23T14:39:56.560Z,5.30
2018-05-23T14:42:27.193Z,5.10
2018-05-23T14:44:56.500Z,6.10
2018-05-23T14:47:22.855Z,5.87
2018-05-23T14:49:50.121Z,6.27
2018-05-23T14:52:19.753Z,5.80
2018-05-23T14:54:49.947Z,6.00
2018-05-23T14:57:18.381Z,5.97
2018-05-23T14:59:51.663Z,6.00
2018-05-23T15:02:30.272Z,6.37
2018-05-23T15:05:05.105Z,5.40
2018-05-23T15:07:37.108Z,5.50
2018-05-23T15:10:05.673Z,5.97
2018-05-23T15:12:35.732Z,6.20
2018-05-23T15:15:06.590Z,6.00
2018-05-23T15:17:35.914Z,6.10
2018-05-23T15:20:07.609Z,6.70
2018-05-23T15:22:36.219Z,5.60
2018-05-23T15:25:06.395Z,6.77
2018-05-23T15:27:33.129Z,7.23
2018-05-23T15:30:00.116Z,6.80
2018-05-23T15:32:30.451Z,7.20
2018-05-23T15:34:56.896Z,7.10
2018-05-23T15:37:24.990Z,8.70
2018-05-23T15:39:52.018Z,8.30
2018-05-23T15:42:18.556Z,6.80
2018-05-23T15:44:52.759Z,8.40
2018-05-23T15:47:19.086Z,8.03
2018-05-23T15:49:45.351Z,7.60
2018-05-23T15:52:12.362Z,9.17
2018-05-23T15:54:38.685Z,8.67
2018-05-23T15:57:05.327Z,9.00
2018-05-23T15:59:31.770Z,8.93
2018-05-23T16:01:58.220Z,10.63
2018-05-23T16:04:24.811Z,8.47
2018-05-23T16:06:51.250Z,10.10
2018-05-23T16:09:17.698Z,9.10
2018-05-23T16:11:45.201Z,10.63
2018-05-23T16:14:11.487Z,10.30
2018-05-23T16:16:37.824Z,10.30
2018-05-23T16:19:04.421Z,10.13
2018-05-23T16:21:36.103Z,10.20
2018-05-23T16:24:05.459Z,12.33
2018-05-23T16:26:31.855Z,11.20
2018-05-23T16:29:06.796Z,11.67
2018-05-23T16:31:35.307Z,12.33
2018-05-23T16:34:02.630Z,13.10
2018-05-23T16:36:30.803Z,12.30
2018-05-23T16:38:57.118Z,12.07
2018-05-23T16:41:25.699Z,12.93
2018-05-23T16:43:54.939Z,12.00
2018-05-23T16:46:25.076Z,12.60
2018-05-23T16:48:55.068Z,11.87
2018-05-23T16:51:25.675Z,12.00
2018-05-23T16:53:56.946Z,12.27
2018-05-23T16:56:25.287Z,11.97
2018-05-23T16:58:55.652Z,13.07
2018-05-23T17:01:35.037Z,11.90
2018-05-23T17:04:07.485Z,13.40
2018-05-23T17:06:37.911Z,12.23
2018-05-23T17:09:05.331Z,13.30
2018-05-23T17:11:32.134Z,11.97
2018-05-23T17:13:58.728Z,11.20
2018-05-23T17:16:25.141Z,11.83
2018-05-23T17:18:51.454Z,11.10
2018-05-23T17:21:17.679Z,12.00
2018-05-23T17:23:43.902Z,11.83
2018-05-23T17:26:10.258Z,12.50
2018-05-23T17:28:36.615Z,12.20
2018-05-23T17:31:02.990Z,12.80
2018-05-23T17:33:30.517Z,13.23
2018-05-23T17:35:56.814Z,14.70
2018-05-23T17:38:23.117Z,12.27
2018-05-23T17:40:49.436Z,12.73
2018-05-23T17:43:15.673Z,11.70
2018-05-23T17:45:42.299Z,12.10
2018-05-23T17:48:08.728Z,11.63
2018-05-23T17:50:34.936Z,12.23
2018-05-23T17:53:01.245Z,11.83
2018-05-23T17:55:27.499Z,12.20
2018-05-23T17:57:53.777Z,11.90
2018-05-23T18:00:20.067Z,13.83
2018-05-23T18:02:46.334Z,13.10
2018-05-23T18:05:12.614Z,11.90
2018-05-23T18:07:40.201Z,12.67
2018-05-23T18:10:10.925Z,12.60
2018-05-23T18:12:37.471Z,12.30
2018-05-23T18:15:03.842Z,12.63
2018-05-23T18:17:30.317Z,12.67
2018-05-23T18:19:56.577Z,12.00
2018-05-23T18:22:23.031Z,14.17
2018-05-23T18:24:49.315Z,13.77
2018-05-23T18:27:15.616Z,13.17
2018-05-23T18:29:41.962Z,12.60
2018-05-23T18:32:09.399Z,13.30
2018-05-23T18:34:40.088Z,12.30
2018-05-23T18:37:07.347Z,13.10
2018-05-23T18:39:33.806Z,13.27
2018-05-23T18:42:02.795Z,13.00
2018-05-23T18:44:32.281Z,13.47
2018-05-23T18:47:02.871Z,14.20
2018-05-23T18:52:08.620Z,14.10
2018-05-23T18:54:39.750Z,14.00
2018-05-23T18:57:09.915Z,12.73
2018-05-23T18:59:38.842Z,12.87
2018-05-23T19:05:08.331Z,13.10
2018-05-23T19:07:38.801Z,13.47
2018-05-23T19:10:48.777Z,13.00
2018-05-23T19:13:21.887Z,13.27
2018-05-23T19:16:08.054Z,13.77
2018-05-23T19:18:36.358Z,13.03
2018-05-23T19:21:07.648Z,12.33
2018-05-23T19:23:36.920Z,13.53
2018-05-23T19:26:07.185Z,13.00
2018-05-23T19:28:36.400Z,12.37
2018-05-23T19:31:08.857Z,12.50
2018-05-23T19:33:36.486Z,12.90
2018-05-23T19:36:22.861Z,13.80
2018-05-23T19:38:55.360Z,13.37
2018-05-23T19:41:23.311Z,13.37
2018-05-23T19:43:52.642Z,13.10
2018-05-23T19:46:33.958Z,13.40
2018-05-23T19:49:06.764Z,13.70
2018-05-23T19:51:35.418Z,11.57
2018-05-23T19:54:08.331Z,12.63
2018-05-23T19:56:36.749Z,12.77
2018-05-23T19:59:11.454Z,12.27
2018-05-23T20:01:44.790Z,14.47
2018-05-23T20:04:16.604Z,13.70
2018-05-23T20:06:44.729Z,12.50
2018-05-23T20:09:16.146Z,11.30
2018-05-23T20:11:47.409Z,12.37
2018-05-23T20:14:16.753Z,13.17
2018-05-23T20:16:46.819Z,14.30
2018-05-23T20:19:13.168Z,11.60
2018-05-23T20:21:40.868Z,12.33
2018-05-23T20:24:11.214Z,11.57
2018-05-23T20:26:38.318Z,12.23
2018-05-23T20:29:05.034Z,12.43
2018-05-23T20:31:35.649Z,12.00
2018-05-23T20:34:11.226Z,13.03
2018-05-23T20:36:38.141Z,11.93
2018-05-23T20:39:13.104Z,11.67
2018-05-23T20:44:43.322Z,13.07
2018-05-23T20:47:13.449Z,14.20
2018-05-23T20:49:47.085Z,13.60
2018-05-23T20:52:17.331Z,13.00
2018-05-23T20:54:58.406Z,11.90
2018-05-23T21:00:17.465Z,12.90
2018-05-23T21:02:45.952Z,14.40
2018-05-23T21:05:16.207Z,12.47
2018-05-23T21:07:46.525Z,14.47
2018-05-23T21:10:17.016Z,14.40
2018-05-23T21:12:47.342Z,13.10
2018-05-23T21:15:16.876Z,15.63
2018-05-23T21:17:45.735Z,13.50
2018-05-23T21:20:18.412Z,13.60
2018-05-23T21:22:46.992Z,15.13
2018-05-23T21:25:16.774Z,14.00
2018-05-23T21:27:48.638Z,16.47
2018-05-23T21:30:16.160Z,14.07
2018-05-23T21:32:46.069Z,14.90
2018-05-23T21:35:19.012Z,14.53
2018-05-23T21:38:01.719Z,15.47
2018-05-23T21:40:28.007Z,14.67
2018-05-23T21:43:02.619Z,15.50
2018-05-23T21:45:32.200Z,15.73
2018-05-23T21:48:04.498Z,15.27
2018-05-23T21:50:35.024Z,15.30
2018-05-23T21:53:02.243Z,14.40
2018-05-23T21:55:32.193Z,14.00
2018-05-23T21:58:01.768Z,14.60
2018-05-23T22:00:33.674Z,14.50
2018-05-23T22:03:02.259Z,13.83
2018-05-23T22:05:32.363Z,15.10
2018-05-23T22:08:02.085Z,16.50
2018-05-23T22:10:29.010Z,15.53
2018-05-23T22:12:56.588Z,16.07
2018-05-23T22:15:23.765Z,16.00
2018-05-23T22:17:50.859Z,15.90
2018-05-23T22:22:51.399Z,15.90
2018-05-23T22:25:20.237Z,14.97
2018-05-23T22:27:50.288Z,16.33
2018-05-23T22:36:22.489Z,15.47
2018-05-23T22:38:49.964Z,15.90
2018-05-23T22:41:19.249Z,16.50
2018-05-23T22:43:46.252Z,17.20
2018-05-23T22:46:12.887Z,16.43
2018-05-23T22:48:39.918Z,15.80
2018-05-23T22:51:16.647Z,17.60
2018-05-23T22:53:43.647Z,16.67
2018-05-23T22:56:30.013Z,16.37
2018-05-23T22:59:03.278Z,17.00
2018-05-23T23:01:31.625Z,16.80
2018-05-23T23:04:01.846Z,17.57
2018-05-23T23:06:31.510Z,17.77
2018-05-23T23:09:01.535Z,16.50
2018-05-23T23:11:32.153Z,17.67
2018-05-23T23:14:04.995Z,17.00
2018-05-23T23:16:32.777Z,16.70
2018-05-23T23:19:03.897Z,17.93
2018-05-23T23:21:33.709Z,17.47
2018-05-23T23:24:02.909Z,18.33
2018-05-23T23:26:35.236Z,17.97
2018-05-23T23:29:02.954Z,19.50
2018-05-23T23:31:44.357Z,19.80
2018-05-23T23:34:20.550Z,19.17
2018-05-23T23:36:53.217Z,20.03
2018-05-23T23:39:19.583Z,18.63
2018-05-23T23:41:50.760Z,18.33
2018-05-23T23:44:17.691Z,16.97
2018-05-23T23:46:56.801Z,17.47
2018-05-23T23:49:26.825Z,19.37
2018-05-23T23:51:58.032Z,18.40
2018-05-23T23:54:26.852Z,17.47
2018-05-23T23:56:54.281Z,19.77
2018-05-23T23:59:26.777Z,18.40
